Time;durP1;ratioP1;P1;durP2;ratioP2;P2;SDS_P1;SDS_P2;PMS_P1;PMS_P2;Temp;Humidity;BMP_temperature;BMP_pressure;BME280_temperature;BME280_humidity;BME280_pressure;Samples;Min_cycle;Max_cycle;Signal;HPM_P1;HPM_P2
2022/12/04 00:01:51;;;;;;;0.00;0.00;;;;;;;;;;5108326;28;20457;-72
2022/12/04 00:04:16;;;;;;;0.65;0.35;;;;;;;;;;5092729;28;20016;-74
2022/12/04 00:06:41;;;;;;;0.05;0.05;;;;;;;;;;5092609;28;20490;-73
2022/12/04 00:09:07;;;;;;;0.00;0.00;;;;;;;;;;5108249;28;20153;-74
2022/12/04 00:11:33;;;;;;;0.00;0.00;;;;;;;;;;5108608;28;20539;-73
2022/12/04 00:13:59;;;;;;;0.25;0.25;;;;;;;;;;5108345;28;20016;-73
2022/12/04 00:16:26;;;;;;;0.20;0.20;;;;;;;;;;5108356;28;20020;-73
2022/12/04 00:18:51;;;;;;;0.15;0.15;;;;;;;;;;5108542;28;20016;-72
2022/12/04 00:21:17;;;;;;;0.30;0.30;;;;;;;;;;5092588;28;20099;-73
2022/12/04 00:23:43;;;;;;;0.20;0.20;;;;;;;;;;5092451;28;20016;-74
2022/12/04 00:26:13;;;;;;;0.00;0.00;;;;;;;;;;5092500;28;20445;-72
2022/12/04 00:28:39;;;;;;;1.02;0.20;;;;;;;;;;5092629;28;20022;-73
2022/12/04 00:31:05;;;;;;;0.20;0.20;;;;;;;;;;5107820;28;20032;-74
2022/12/04 00:33:30;;;;;;;0.08;0.08;;;;;;;;;;5092662;28;20052;-73
2022/12/04 00:35:56;;;;;;;0.35;0.35;;;;;;;;;;5092773;28;20072;-70
2022/12/04 00:38:22;;;;;;;0.00;0.00;;;;;;;;;;5092611;28;20020;-74
2022/12/04 00:40:48;;;;;;;0.15;0.15;;;;;;;;;;5107803;28;20039;-73
2022/12/04 00:43:13;;;;;;;0.00;0.00;;;;;;;;;;5091547;28;20099;-72
2022/12/04 00:45:39;;;;;;;0.45;0.38;;;;;;;;;;5092062;28;20092;-72
2022/12/04 00:48:04;;;;;;;0.32;0.22;;;;;;;;;;5092632;28;20028;-72
2022/12/04 00:50:30;;;;;;;0.22;0.22;;;;;;;;;;5092064;28;20023;-74
2022/12/04 00:52:56;;;;;;;0.00;0.00;;;;;;;;;;5092353;28;20533;-73
2022/12/04 00:55:22;;;;;;;0.00;0.00;;;;;;;;;;5107996;28;20016;-72
2022/12/04 00:57:47;;;;;;;0.00;0.00;;;;;;;;;;5107830;28;20463;-73
2022/12/04 01:00:13;;;;;;;1.08;0.70;;;;;;;;;;5090541;28;20477;-73
2022/12/04 01:02:38;;;;;;;0.47;0.47;;;;;;;;;;5107743;28;20157;-73
2022/12/04 01:05:03;;;;;;;0.10;0.10;;;;;;;;;;5091722;28;20365;-71
2022/12/04 01:07:29;;;;;;;0.28;0.28;;;;;;;;;;5092018;28;20020;-69
2022/12/04 01:09:55;;;;;;;0.20;0.20;;;;;;;;;;5092066;28;20381;-72
2022/12/04 01:12:21;;;;;;;0.00;0.00;;;;;;;;;;5091899;28;20028;-73
2022/12/04 01:14:46;;;;;;;0.00;0.00;;;;;;;;;;5107321;28;20073;-72
2022/12/04 01:17:11;;;;;;;0.45;0.45;;;;;;;;;;5090437;28;20024;-72
2022/12/04 01:19:37;;;;;;;0.87;0.70;;;;;;;;;;5107607;28;20013;-73
2022/12/04 01:22:02;;;;;;;0.00;0.00;;;;;;;;;;5092137;28;20103;-74
2022/12/04 01:24:28;;;;;;;0.00;0.00;;;;;;;;;;5107617;28;20041;-71
2022/12/04 01:26:53;;;;;;;0.52;0.43;;;;;;;;;;5091744;28;20016;-72
2022/12/04 01:29:19;;;;;;;0.00;0.00;;;;;;;;;;5107184;28;20448;-73
2022/12/04 01:31:44;;;;;;;0.00;0.00;;;;;;;;;;5107381;28;20114;-73
2022/12/04 01:34:09;;;;;;;0.00;0.00;;;;;;;;;;5107538;28;20016;-75
2022/12/04 01:36:35;;;;;;;0.00;0.00;;;;;;;;;;5107434;28;20103;-74
2022/12/04 01:39:00;;;;;;;0.00;0.00;;;;;;;;;;5091715;28;20522;-73
2022/12/04 01:41:27;;;;;;;0.00;0.00;;;;;;;;;;5091809;28;20044;-76
2022/12/04 01:44:13;;;;;;;0.82;0.82;;;;;;;;;;5107441;28;20032;-75
2022/12/04 01:46:38;;;;;;;;;;;;;;;;;;5107582;28;20056;-76
2022/12/04 01:49:05;;;;;;;3.80;1.07;;;;;;;;;;5090129;28;19958;-75
2022/12/04 01:51:36;;;;;;;0.35;0.35;;;;;;;;;;5107152;28;20037;-75
2022/12/04 01:54:04;;;;;;;0.03;0.03;;;;;;;;;;5091527;28;20031;-75
2022/12/04 01:56:41;;;;;;;0.00;0.00;;;;;;;;;;5091472;28;20020;-74
2022/12/04 01:59:08;;;;;;;0.00;0.00;;;;;;;;;;5091449;28;20099;-74
2022/12/04 02:01:37;;;;;;;0.00;0.00;;;;;;;;;;5092687;28;20459;-75
2022/12/04 02:04:02;;;;;;;0.00;0.00;;;;;;;;;;5094982;28;20107;-75
2022/12/04 02:06:28;;;;;;;0.20;0.20;;;;;;;;;;5094943;28;20082;-76
2022/12/04 02:08:53;;;;;;;0.30;0.30;;;;;;;;;;5094716;28;20016;-72
2022/12/04 02:11:18;;;;;;;0.08;0.08;;;;;;;;;;5094481;28;20034;-75
2022/12/04 02:13:56;;;;;;;0.15;0.15;;;;;;;;;;5095162;28;20453;-74
2022/12/04 02:16:24;;;;;;;0.00;0.00;;;;;;;;;;5110588;28;20468;-74
2022/12/04 02:18:58;;;;;;;0.00;0.00;;;;;;;;;;5093544;28;20024;-74
2022/12/04 02:21:37;;;;;;;0.10;0.10;;;;;;;;;;5095141;28;20028;-75
2022/12/04 02:24:06;;;;;;;0.10;0.10;;;;;;;;;;5110587;28;20020;-76
2022/12/04 02:26:55;;;;;;;0.17;0.10;;;;;;;;;;5094551;28;20013;-72
2022/12/04 02:29:36;;;;;;;0.52;0.45;;;;;;;;;;5094621;28;20396;-74
2022/12/04 02:32:16;;;;;;;0.20;0.13;;;;;;;;;;5094460;28;20043;-74
2022/12/04 02:35:01;;;;;;;0.00;0.00;;;;;;;;;;5094679;28;20095;-76
2022/12/04 02:37:27;;;;;;;;;;;;;;;;;;5085835;28;20021;-76
2022/12/04 02:39:58;;;;;;;0.33;0.33;;;;;;;;;;5094576;28;19904;-75
2022/12/04 02:42:23;;;;;;;0.00;0.00;;;;;;;;;;5109870;28;20120;-70
2022/12/04 02:44:57;;;;;;;0.40;0.37;;;;;;;;;;5094459;28;20111;-75
2022/12/04 02:47:24;;;;;;;0.10;0.10;;;;;;;;;;5094486;28;20013;-75
2022/12/04 02:49:55;;;;;;;0.33;0.33;;;;;;;;;;5094290;28;20017;-77
2022/12/04 02:52:23;;;;;;;0.32;0.32;;;;;;;;;;5094181;28;20028;-76
2022/12/04 02:54:52;;;;;;;0.15;0.15;;;;;;;;;;5109727;28;20480;-77
2022/12/04 02:57:23;;;;;;;0.00;0.00;;;;;;;;;;5109760;28;20046;-75
2022/12/04 02:59:50;;;;;;;0.10;0.10;;;;;;;;;;5109629;28;20469;-77
2022/12/04 03:02:26;;;;;;;0.28;0.28;;;;;;;;;;5093660;28;20412;-74
2022/12/04 03:04:53;;;;;;;0.00;0.00;;;;;;;;;;5094092;28;20090;-77
2022/12/04 03:07:23;;;;;;;0.13;0.13;;;;;;;;;;5093629;28;20329;-76
2022/12/04 03:09:54;;;;;;;1.08;0.22;;;;;;;;;;5094032;28;20012;-76
2022/12/04 03:12:26;;;;;;;0.00;0.00;;;;;;;;;;5108958;28;20032;-76
2022/12/04 03:15:00;;;;;;;2.72;0.88;;;;;;;;;;5109207;28;20076;-74
2022/12/04 03:17:32;;;;;;;0.00;0.00;;;;;;;;;;5093763;28;20065;-72
2022/12/04 03:19:59;;;;;;;2.55;0.65;;;;;;;;;;5109701;28;20024;-75
2022/12/04 03:22:25;;;;;;;0.00;0.00;;;;;;;;;;5094098;28;20061;-77
2022/12/04 03:24:52;;;;;;;0.00;0.00;;;;;;;;;;5093607;28;20462;-73
2022/12/04 03:27:36;;;;;;;0.98;0.22;;;;;;;;;;5093202;28;20028;-75
2022/12/04 03:30:01;;;;;;;0.00;0.00;;;;;;;;;;5093559;28;20016;-76
2022/12/04 03:32:59;;;;;;;0.30;0.10;;;;;;;;;;5093273;28;20540;-73
2022/12/04 03:35:24;;;;;;;0.00;0.00;;;;;;;;;;5080997;28;20032;-76
2022/12/04 03:38:08;;;;;;;0.00;0.00;;;;;;;;;;5093325;28;20076;-75
2022/12/04 03:40:48;;;;;;;0.00;0.00;;;;;;;;;;5093212;28;20055;-76
2022/12/04 03:43:25;;;;;;;0.10;0.10;;;;;;;;;;5093380;28;20020;-72
2022/12/04 03:46:06;;;;;;;0.57;0.57;;;;;;;;;;5108824;28;20023;-74
2022/12/04 03:48:40;;;;;;;0.00;0.00;;;;;;;;;;5108855;28;20024;-76
2022/12/04 03:51:15;;;;;;;0.20;0.20;;;;;;;;;;5108403;28;20063;-77
2022/12/04 03:53:51;;;;;;;0.00;0.00;;;;;;;;;;5108919;28;20016;-77
2022/12/04 03:56:21;;;;;;;0.00;0.00;;;;;;;;;;5093668;28;20028;-77
2022/12/04 03:58:53;;;;;;;0.43;0.43;;;;;;;;;;5108823;28;20445;-77
2022/12/04 04:01:21;;;;;;;0.00;0.00;;;;;;;;;;5108239;28;20501;-76
2022/12/04 04:03:49;;;;;;;0.25;0.25;;;;;;;;;;5093157;28;20369;-77
2022/12/04 04:06:17;;;;;;;0.13;0.13;;;;;;;;;;5093183;28;20472;-78
2022/12/04 04:08:44;;;;;;;0.00;0.00;;;;;;;;;;5108801;28;20016;-74
2022/12/04 04:11:16;;;;;;;0.37;0.37;;;;;;;;;;5108414;28;20024;-78
2022/12/04 04:25:07;;;;;;;0.00;0.00;;;;;;;;;;5092474;28;20439;-76
2022/12/04 04:27:32;;;;;;;0.38;0.08;;;;;;;;;;5093052;28;20404;-76
2022/12/04 04:29:58;;;;;;;0.17;0.17;;;;;;;;;;5092699;28;20031;-76
2022/12/04 04:32:35;;;;;;;0.00;0.00;;;;;;;;;;5091104;28;20028;-78
2022/12/04 04:35:16;;;;;;;0.00;0.00;;;;;;;;;;5092277;28;20081;-78
2022/12/04 04:38:06;;;;;;;0.00;0.00;;;;;;;;;;5108289;28;20024;-77
2022/12/04 04:40:37;;;;;;;0.00;0.00;;;;;;;;;;5092839;28;20027;-78
2022/12/04 04:43:07;;;;;;;0.00;0.00;;;;;;;;;;5092527;28;20028;-79
2022/12/04 04:45:34;;;;;;;0.00;0.00;;;;;;;;;;5092983;28;20012;-77
2022/12/04 04:48:08;;;;;;;0.00;0.00;;;;;;;;;;5092747;28;20028;-74
2022/12/04 04:50:34;;;;;;;0.00;0.00;;;;;;;;;;5093116;28;20083;-77
2022/12/04 04:53:04;;;;;;;0.27;0.27;;;;;;;;;;5093130;28;20019;-75
2022/12/04 04:55:33;;;;;;;0.20;0.20;;;;;;;;;;5108587;28;20023;-78
2022/12/04 04:58:06;;;;;;;0.00;0.00;;;;;;;;;;5108921;28;20118;-75
2022/12/04 05:00:31;;;;;;;0.47;0.47;;;;;;;;;;5108672;28;20059;-77
2022/12/04 05:02:56;;;;;;;0.30;0.10;;;;;;;;;;5092783;28;20008;-67
2022/12/04 05:05:22;;;;;;;0.87;0.87;;;;;;;;;;5092626;28;20030;-79
2022/12/04 05:07:47;;;;;;;0.00;0.00;;;;;;;;;;5092956;28;20061;-79
2022/12/04 05:10:12;;;;;;;0.13;0.10;;;;;;;;;;5107840;28;20073;-73
2022/12/04 05:12:38;;;;;;;0.10;0.10;;;;;;;;;;5092172;28;20028;-77
2022/12/04 05:15:04;;;;;;;1.50;0.30;;;;;;;;;;5092167;28;20023;-79
2022/12/04 05:17:30;;;;;;;2.00;0.73;;;;;;;;;;5092114;28;20059;-78
2022/12/04 05:19:55;;;;;;;0.43;0.33;;;;;;;;;;5092004;28;20045;-78
2022/12/04 05:22:32;;;;;;;0.00;0.00;;;;;;;;;;5092194;28;20377;-77
2022/12/04 05:24:57;;;;;;;0.00;0.00;;;;;;;;;;5092392;28;20020;-75
2022/12/04 05:27:23;;;;;;;0.00;0.00;;;;;;;;;;5092249;28;20008;-78
2022/12/04 05:29:50;;;;;;;0.00;0.00;;;;;;;;;;5092549;28;20054;-77
2022/12/04 05:32:16;;;;;;;0.03;0.03;;;;;;;;;;5107595;28;20040;-78
2022/12/04 05:34:41;;;;;;;0.00;0.00;;;;;;;;;;5092181;28;20049;-78
2022/12/04 05:37:06;;;;;;;0.00;0.00;;;;;;;;;;5092731;28;20062;-78
2022/12/04 05:39:33;;;;;;;0.83;0.63;;;;;;;;;;5111385;28;20016;-79
2022/12/04 05:41:59;;;;;;;0.08;0.08;;;;;;;;;;5095807;28;20108;-77
2022/12/04 05:44:24;;;;;;;0.23;0.23;;;;;;;;;;5111567;28;20532;-75
2022/12/04 05:46:50;;;;;;;0.00;0.00;;;;;;;;;;5095687;28;20384;-74
2022/12/04 05:49:15;;;;;;;0.00;0.00;;;;;;;;;;5095880;28;20375;-79
2022/12/04 05:51:40;;;;;;;0.00;0.00;;;;;;;;;;5095595;28;20032;-79
2022/12/04 05:54:06;;;;;;;0.00;0.00;;;;;;;;;;5095455;28;20073;-79
2022/12/04 05:56:31;;;;;;;0.13;0.13;;;;;;;;;;5111625;28;20107;-76
2022/12/04 05:58:56;;;;;;;2.67;0.30;;;;;;;;;;5095418;28;20020;-65
2022/12/04 06:01:22;;;;;;;0.73;0.57;;;;;;;;;;5110883;28;20051;-78
2022/12/04 06:03:48;;;;;;;0.15;0.15;;;;;;;;;;5095646;28;20020;-75
2022/12/04 06:06:14;;;;;;;0.10;0.10;;;;;;;;;;5095530;28;20043;-78
2022/12/04 06:08:42;;;;;;;2.53;0.47;;;;;;;;;;5095027;28;20484;-77
2022/12/04 06:11:11;;;;;;;0.53;0.40;;;;;;;;;;5110984;28;20122;-78
2022/12/04 06:13:38;;;;;;;0.33;0.33;;;;;;;;;;5110992;28;20070;-76
2022/12/04 06:16:04;;;;;;;0.00;0.00;;;;;;;;;;5111286;28;20020;-77
2022/12/04 06:18:29;;;;;;;0.47;0.47;;;;;;;;;;5110850;28;20089;-75
2022/12/04 06:20:56;;;;;;;0.00;0.00;;;;;;;;;;5095335;28;20016;-78
2022/12/04 06:23:22;;;;;;;0.00;0.00;;;;;;;;;;5095683;28;20480;-76
2022/12/04 06:25:47;;;;;;;0.37;0.37;;;;;;;;;;5095393;28;20038;-77
2022/12/04 06:28:12;;;;;;;0.77;0.77;;;;;;;;;;5110632;28;20071;-75
2022/12/04 06:30:38;;;;;;;0.10;0.10;;;;;;;;;;5110773;28;20016;-76
2022/12/04 06:33:03;;;;;;;0.00;0.00;;;;;;;;;;5096056;28;20476;-79
2022/12/04 06:35:29;;;;;;;0.00;0.00;;;;;;;;;;5095867;28;20020;-74
2022/12/04 06:37:54;;;;;;;0.00;0.00;;;;;;;;;;5094961;28;20020;-79
2022/12/04 06:40:19;;;;;;;0.00;0.00;;;;;;;;;;5110649;28;20016;-76
2022/12/04 06:42:45;;;;;;;0.10;0.10;;;;;;;;;;5110576;28;20017;-77
2022/12/04 06:45:10;;;;;;;0.23;0.23;;;;;;;;;;5094352;28;20042;-78
2022/12/04 06:47:36;;;;;;;0.00;0.00;;;;;;;;;;5094611;28;20108;-76
2022/12/04 06:50:02;;;;;;;1.07;0.37;;;;;;;;;;5109669;28;20067;-79
2022/12/04 06:52:27;;;;;;;0.00;0.00;;;;;;;;;;5110127;28;20050;-78
2022/12/04 06:54:53;;;;;;;2.47;0.27;;;;;;;;;;5110554;28;20472;-80
2022/12/04 06:57:18;;;;;;;0.00;0.00;;;;;;;;;;5110327;28;20027;-78
2022/12/04 06:59:43;;;;;;;0.00;0.00;;;;;;;;;;5094584;28;20437;-75
2022/12/04 07:02:09;;;;;;;0.00;0.00;;;;;;;;;;5110498;28;20400;-78
2022/12/04 07:04:35;;;;;;;0.00;0.00;;;;;;;;;;5109864;28;20495;-76
2022/12/04 07:07:00;;;;;;;0.10;0.10;;;;;;;;;;5110323;28;20043;-77
2022/12/04 07:09:25;;;;;;;0.23;0.23;;;;;;;;;;5110063;28;20024;-75
2022/12/04 07:11:51;;;;;;;0.53;0.53;;;;;;;;;;5094105;28;20020;-78
2022/12/04 07:14:17;;;;;;;0.00;0.00;;;;;;;;;;5094358;28;20082;-76
2022/12/04 07:16:42;;;;;;;0.30;0.30;;;;;;;;;;5109801;28;20472;-74
2022/12/04 07:19:12;;;;;;;0.00;0.00;;;;;;;;;;5109541;28;20077;-75
2022/12/04 07:21:38;;;;;;;0.00;0.00;;;;;;;;;;5094488;28;20024;-82
2022/12/04 07:24:04;;;;;;;0.00;0.00;;;;;;;;;;5094401;28;20023;-77
2022/12/04 07:26:29;;;;;;;0.00;0.00;;;;;;;;;;5110095;28;20552;-78
2022/12/04 07:28:55;;;;;;;0.00;0.00;;;;;;;;;;5094747;28;20430;-80
2022/12/04 07:31:22;;;;;;;1.17;0.57;;;;;;;;;;5095162;28;20066;-77
2022/12/04 07:33:47;;;;;;;0.00;0.00;;;;;;;;;;5110966;28;20024;-80
2022/12/04 07:36:14;;;;;;;0.30;0.30;;;;;;;;;;5109919;28;20016;-80
2022/12/04 07:38:40;;;;;;;0.00;0.00;;;;;;;;;;5109868;28;20020;-79
2022/12/04 07:41:06;;;;;;;0.00;0.00;;;;;;;;;;5109305;28;20410;-77
2022/12/04 07:43:31;;;;;;;0.30;0.30;;;;;;;;;;5094149;28;20070;-78
2022/12/04 07:45:57;;;;;;;0.00;0.00;;;;;;;;;;5093573;28;20044;-81
2022/12/04 07:48:23;;;;;;;0.83;0.57;;;;;;;;;;5093436;28;20103;-78
2022/12/04 07:50:48;;;;;;;0.00;0.00;;;;;;;;;;5108906;28;20156;-74
2022/12/04 07:53:13;;;;;;;0.03;0.03;;;;;;;;;;5093241;28;20016;-78
2022/12/04 07:55:39;;;;;;;0.20;0.20;;;;;;;;;;5093265;28;20020;-80
2022/12/04 07:58:04;;;;;;;0.00;0.00;;;;;;;;;;5093568;28;20020;-80
2022/12/04 08:00:29;;;;;;;0.10;0.10;;;;;;;;;;5108213;28;20044;-79
2022/12/04 08:02:55;;;;;;;0.30;0.30;;;;;;;;;;5108952;28;20028;-79
2022/12/04 08:05:20;;;;;;;0.00;0.00;;;;;;;;;;5092818;28;20016;-79
2022/12/04 08:07:46;;;;;;;0.63;0.50;;;;;;;;;;5093052;28;20023;-77
2022/12/04 08:10:11;;;;;;;0.00;0.00;;;;;;;;;;5109083;28;20027;-75
2022/12/04 08:12:37;;;;;;;0.00;0.00;;;;;;;;;;5093044;28;20035;-77
2022/12/04 08:15:02;;;;;;;0.00;0.00;;;;;;;;;;5092885;28;20529;-77
2022/12/04 08:17:28;;;;;;;0.00;0.00;;;;;;;;;;5092987;28;20018;-76
2022/12/04 08:19:53;;;;;;;0.00;0.00;;;;;;;;;;5108959;28;20147;-77
2022/12/04 08:22:18;;;;;;;0.63;0.63;;;;;;;;;;5094023;28;20008;-77
2022/12/04 08:24:44;;;;;;;0.00;0.00;;;;;;;;;;5092923;28;20016;-78
2022/12/04 08:27:09;;;;;;;0.00;0.00;;;;;;;;;;5108258;28;20024;-79
2022/12/04 08:29:35;;;;;;;0.37;0.37;;;;;;;;;;5093029;28;20016;-78
2022/12/04 08:32:01;;;;;;;0.10;0.10;;;;;;;;;;5092972;28;20085;-81
2022/12/04 08:34:26;;;;;;;0.20;0.20;;;;;;;;;;5092753;28;20028;-78
2022/12/04 08:36:51;;;;;;;0.00;0.00;;;;;;;;;;5093981;28;20027;-78
2022/12/04 08:39:17;;;;;;;0.03;0.03;;;;;;;;;;5093847;28;20469;-78
2022/12/04 08:41:42;;;;;;;0.00;0.00;;;;;;;;;;5093734;28;20073;-80
2022/12/04 08:44:08;;;;;;;0.30;0.30;;;;;;;;;;5091763;28;20020;-78
2022/12/04 08:46:33;;;;;;;0.10;0.07;;;;;;;;;;5093100;28;20034;-76
2022/12/04 08:48:59;;;;;;;0.67;0.67;;;;;;;;;;5108712;28;20110;-78
2022/12/04 08:51:26;;;;;;;2.73;0.77;;;;;;;;;;5108559;28;20028;-80
2022/12/04 08:53:54;;;;;;;0.57;0.47;;;;;;;;;;5108862;28;20020;-78
2022/12/04 08:56:19;;;;;;;1.40;0.63;;;;;;;;;;5092794;28;20100;-79
2022/12/04 08:58:45;;;;;;;0.30;0.30;;;;;;;;;;5093205;28;20063;-77
2022/12/04 09:01:11;;;;;;;0.47;0.33;;;;;;;;;;5091443;28;20044;-78
2022/12/04 09:03:37;;;;;;;0.00;0.00;;;;;;;;;;5092540;28;20059;-76
2022/12/04 09:06:03;;;;;;;0.17;0.17;;;;;;;;;;5109212;28;20027;-81
2022/12/04 09:08:28;;;;;;;0.53;0.53;;;;;;;;;;5108742;28;20031;-81
2022/12/04 09:10:54;;;;;;;0.00;0.00;;;;;;;;;;5094812;28;20028;-78
2022/12/04 09:13:19;;;;;;;0.00;0.00;;;;;;;;;;5096605;28;20020;-79
2022/12/04 09:15:45;;;;;;;0.00;0.00;;;;;;;;;;5112748;28;20027;-79
2022/12/04 09:18:10;;;;;;;0.00;0.00;;;;;;;;;;5112357;28;20374;-78
2022/12/04 09:20:36;;;;;;;0.37;0.37;;;;;;;;;;5112122;28;20099;-78
2022/12/04 09:23:02;;;;;;;0.20;0.20;;;;;;;;;;5096292;28;20024;-74
2022/12/04 09:25:27;;;;;;;0.00;0.00;;;;;;;;;;5096725;28;20028;-77
2022/12/04 09:27:52;;;;;;;1.17;0.83;;;;;;;;;;5096013;28;20016;-79
2022/12/04 09:30:18;;;;;;;0.00;0.00;;;;;;;;;;5096246;28;20103;-79
2022/12/04 09:32:43;;;;;;;0.00;0.00;;;;;;;;;;5112059;28;20477;-79
2022/12/04 09:35:09;;;;;;;0.00;0.00;;;;;;;;;;5095972;28;20016;-79
2022/12/04 09:37:38;;;;;;;0.20;0.13;;;;;;;;;;5111823;28;20393;-79
2022/12/04 09:40:06;;;;;;;0.43;0.30;;;;;;;;;;5096197;28;20019;-80
2022/12/04 09:42:41;;;;;;;0.00;0.00;;;;;;;;;;5096152;28;20020;-79
2022/12/04 09:45:17;;;;;;;0.00;0.00;;;;;;;;;;5110798;28;20438;-76
2022/12/04 09:47:55;;;;;;;0.00;0.00;;;;;;;;;;5095484;28;20039;-80
2022/12/04 09:50:39;;;;;;;0.00;0.00;;;;;;;;;;5095783;28;20047;-81
2022/12/04 09:53:13;;;;;;;0.07;0.07;;;;;;;;;;5095672;28;20469;-77
2022/12/04 09:55:48;;;;;;;0.00;0.00;;;;;;;;;;5095019;28;20012;-79
2022/12/04 09:58:16;;;;;;;0.00;0.00;;;;;;;;;;5095665;28;20106;-80
2022/12/04 10:00:43;;;;;;;11.27;5.27;;;;;;;;;;5095459;28;20055;-78
2022/12/04 10:03:13;;;;;;;11.40;4.83;;;;;;;;;;5095157;28;20045;-80
2022/12/04 10:05:48;;;;;;;8.27;4.80;;;;;;;;;;5094996;28;20107;-80
2022/12/04 10:08:13;;;;;;;8.98;5.03;;;;;;;;;;5110987;28;20029;-80
2022/12/04 10:10:41;;;;;;;10.55;5.10;;;;;;;;;;5095271;28;20024;-80
2022/12/04 10:13:24;;;;;;;10.18;4.97;;;;;;;;;;5094871;28;20189;-78
2022/12/04 10:16:08;;;;;;;10.00;5.60;;;;;;;;;;5094632;28;20039;-77
2022/12/04 10:18:41;;;;;;;8.83;5.00;;;;;;;;;;5110218;28;20408;-77
2022/12/04 10:21:18;;;;;;;9.13;4.93;;;;;;;;;;5110696;28;20158;-80
2022/12/04 10:23:47;;;;;;;8.33;5.00;;;;;;;;;;5109856;28;20028;-78
2022/12/04 10:26:16;;;;;;;9.77;5.57;;;;;;;;;;5110376;28;20024;-77
2022/12/04 10:28:57;;;;;;;12.87;5.63;;;;;;;;;;5110457;28;20023;-78
2022/12/04 10:31:23;;;;;;;7.72;4.95;;;;;;;;;;5094873;28;20032;-80
2022/12/04 10:34:01;;;;;;;8.70;5.27;;;;;;;;;;5095805;28;20028;-79
2022/12/04 10:36:29;;;;;;;10.80;4.77;;;;;;;;;;5096082;28;20028;-75
2022/12/04 10:38:56;;;;;;;8.02;3.95;;;;;;;;;;5096740;28;20027;-81
2022/12/04 10:41:34;;;;;;;7.13;4.23;;;;;;;;;;5112411;28;20024;-79
2022/12/04 10:43:59;;;;;;;8.43;4.93;;;;;;;;;;5095500;28;20420;-80
2022/12/04 10:46:32;;;;;;;9.20;5.97;;;;;;;;;;5095446;28;20016;-80
2022/12/04 10:49:08;;;;;;;10.67;5.67;;;;;;;;;;5110215;28;20016;-79
2022/12/04 10:51:41;;;;;;;9.53;5.50;;;;;;;;;;5110174;28;20032;-78
2022/12/04 10:54:27;;;;;;;10.57;6.07;;;;;;;;;;5094386;28;20081;-79
2022/12/04 10:56:56;;;;;;;10.63;6.77;;;;;;;;;;5086470;28;20055;-79
2022/12/04 10:59:22;;;;;;;12.20;7.47;;;;;;;;;;5094336;28;20016;-79
2022/12/04 11:01:48;;;;;;;13.20;7.40;;;;;;;;;;5093925;28;20043;-79
2022/12/04 11:04:21;;;;;;;10.67;7.10;;;;;;;;;;5095818;28;20012;-80
2022/12/04 11:06:48;;;;;;;12.30;6.83;;;;;;;;;;5110460;28;20080;-79
2022/12/04 11:09:23;;;;;;;13.07;7.53;;;;;;;;;;5110179;28;20528;-80
2022/12/04 11:11:49;;;;;;;10.55;6.85;;;;;;;;;;5110018;28;20036;-79
2022/12/04 11:14:16;;;;;;;12.90;6.57;;;;;;;;;;5094750;28;20504;-79
2022/12/04 11:16:43;;;;;;;9.60;6.57;;;;;;;;;;5110750;28;20168;-80
2022/12/04 11:19:37;;;;;;;9.55;6.05;;;;;;;;;;5095674;28;20095;-78
2022/12/04 11:22:17;;;;;;;10.33;7.20;;;;;;;;;;5090206;28;20043;-79
2022/12/04 11:24:48;;;;;;;12.73;6.60;;;;;;;;;;5094635;28;20105;-79
2022/12/04 11:27:30;;;;;;;11.67;6.27;;;;;;;;;;5109204;28;20027;-78
2022/12/04 11:29:56;;;;;;;10.73;6.18;;;;;;;;;;5093457;28;20027;-78
2022/12/04 11:32:24;;;;;;;12.57;7.73;;;;;;;;;;5109484;28;20020;-74
2022/12/04 11:34:51;;;;;;;11.07;6.80;;;;;;;;;;5093013;28;20051;-77
2022/12/04 11:37:18;;;;;;;10.60;7.50;;;;;;;;;;5109054;28;20119;-80
2022/12/04 11:39:44;;;;;;;9.38;5.88;;;;;;;;;;5093783;28;20016;-77
2022/12/04 11:42:12;;;;;;;12.20;7.70;;;;;;;;;;5093652;28;20073;-80
2022/12/04 11:44:38;;;;;;;11.47;7.53;;;;;;;;;;5093433;28;20016;-78
2022/12/04 11:47:04;;;;;;;10.23;6.80;;;;;;;;;;5108514;28;20035;-79
2022/12/04 11:49:30;;;;;;;10.90;6.83;;;;;;;;;;5093077;28;20029;-79
2022/12/04 11:52:08;;;;;;;9.67;6.20;;;;;;;;;;5093504;28;20047;-74
2022/12/04 11:54:33;;;;;;;12.67;7.03;;;;;;;;;;5108570;28;20024;-77
2022/12/04 11:57:08;;;;;;;8.00;5.17;;;;;;;;;;5108599;28;20127;-79
2022/12/04 11:59:33;;;;;;;9.82;6.45;;;;;;;;;;5109152;28;20023;-79
2022/12/04 12:02:17;;;;;;;9.63;6.40;;;;;;;;;;5093234;28;20062;-79
2022/12/04 12:05:12;;;;;;;9.90;7.10;;;;;;;;;;5108891;28;20020;-80
2022/12/04 12:07:55;;;;;;;9.27;6.57;;;;;;;;;;5088184;28;20523;-78
2022/12/04 12:10:39;;;;;;;10.05;7.85;;;;;;;;;;5093687;28;20415;-79
2022/12/04 12:13:12;;;;;;;11.18;6.57;;;;;;;;;;5092698;28;20063;-80
2022/12/04 12:15:45;;;;;;;9.13;6.70;;;;;;;;;;5093114;28;20059;-78
2022/12/04 12:18:22;;;;;;;8.75;6.05;;;;;;;;;;5093747;28;20338;-78
2022/12/04 12:21:07;;;;;;;7.57;5.57;;;;;;;;;;5094034;28;20027;-80
2022/12/04 12:23:50;;;;;;;9.60;6.23;;;;;;;;;;5092912;28;20457;-78
2022/12/04 12:26:17;;;;;;;9.30;6.03;;;;;;;;;;5108928;28;20031;-80
2022/12/04 12:28:45;;;;;;;10.20;6.97;;;;;;;;;;5093662;28;20013;-78
2022/12/04 12:31:26;;;;;;;12.52;6.70;;;;;;;;;;5107991;28;20031;-78
2022/12/04 12:33:55;;;;;;;9.20;5.70;;;;;;;;;;5107970;28;20028;-79
2022/12/04 12:36:21;;;;;;;9.75;6.00;;;;;;;;;;5092621;28;20019;-79
2022/12/04 12:38:51;;;;;;;8.43;6.53;;;;;;;;;;5092623;28;20032;-79
2022/12/04 12:41:23;;;;;;;10.37;6.30;;;;;;;;;;5107685;28;20031;-75
2022/12/04 12:44:03;;;;;;;10.07;6.68;;;;;;;;;;5093047;28;20012;-78
2022/12/04 12:46:47;;;;;;;10.10;6.53;;;;;;;;;;5107766;28;20020;-79
2022/12/04 12:49:31;;;;;;;10.33;6.83;;;;;;;;;;5107993;28;20393;-78
2022/12/04 12:52:03;;;;;;;9.38;5.97;;;;;;;;;;5093055;28;20039;-78
2022/12/04 12:55:03;;;;;;;9.82;7.07;;;;;;;;;;5093015;28;20478;-80
2022/12/04 12:57:41;;;;;;;10.13;6.80;;;;;;;;;;5060432;28;20020;-77
2022/12/04 13:00:14;;;;;;;9.53;6.20;;;;;;;;;;5090493;28;20044;-78
2022/12/04 13:02:43;;;;;;;10.30;6.10;;;;;;;;;;5111621;28;20031;-82
2022/12/04 13:05:10;;;;;;;9.38;5.40;;;;;;;;;;5093284;28;20024;-80
2022/12/04 13:07:54;;;;;;;7.73;5.07;;;;;;;;;;5092812;28;20035;-74
2022/12/04 13:10:20;;;;;;;10.43;6.10;;;;;;;;;;5092344;28;20080;-78
2022/12/04 13:12:48;;;;;;;7.78;4.93;;;;;;;;;;5092721;28;20044;-76
2022/12/04 13:15:17;;;;;;;12.68;6.10;;;;;;;;;;5108294;28;20024;-81
2022/12/04 13:17:45;;;;;;;10.37;6.47;;;;;;;;;;5093231;28;20012;-81
2022/12/04 13:20:14;;;;;;;10.87;7.20;;;;;;;;;;5092771;28;20031;-80
2022/12/04 13:22:54;;;;;;;11.20;7.07;;;;;;;;;;5108359;28;20560;-79
2022/12/04 13:25:20;;;;;;;10.50;6.47;;;;;;;;;;5108343;28;20021;-82
2022/12/04 13:27:51;;;;;;;8.23;5.27;;;;;;;;;;5092433;28;20050;-78
2022/12/04 13:30:27;;;;;;;10.40;7.50;;;;;;;;;;5092557;28;20487;-80
2022/12/04 13:32:56;;;;;;;6.80;5.13;;;;;;;;;;5092287;28;20032;-77
2022/12/04 13:35:21;;;;;;;11.33;6.83;;;;;;;;;;5107206;28;20042;-77
2022/12/04 13:38:05;;;;;;;12.83;7.03;;;;;;;;;;5107883;28;20024;-79
2022/12/04 13:40:40;;;;;;;8.33;6.00;;;;;;;;;;5107865;28;20020;-77
2022/12/04 13:43:06;;;;;;;;;;;;;;;;;;5092211;28;20437;-80
2022/12/04 13:45:32;;;;;;;10.77;5.23;;;;;;;;;;5093259;28;19904;-78
2022/12/04 13:47:58;;;;;;;10.10;6.37;;;;;;;;;;5108407;28;20024;-78
2022/12/04 13:50:28;;;;;;;12.23;6.50;;;;;;;;;;5109972;28;20400;-80
2022/12/04 13:52:54;;;;;;;9.37;5.40;;;;;;;;;;5092800;28;20130;-79
2022/12/04 13:55:24;;;;;;;9.10;5.60;;;;;;;;;;5108497;28;20376;-78
2022/12/04 13:58:04;;;;;;;9.90;5.63;;;;;;;;;;5112348;28;20032;-79
2022/12/04 14:00:34;;;;;;;7.90;5.60;;;;;;;;;;5095643;28;20059;-79
2022/12/04 14:03:19;;;;;;;7.73;5.20;;;;;;;;;;5094997;28;20095;-80
2022/12/04 14:05:44;;;;;;;9.20;5.47;;;;;;;;;;5096528;28;20066;-80
2022/12/04 14:08:19;;;;;;;8.40;5.17;;;;;;;;;;5095576;28;20028;-82
2022/12/04 14:10:45;;;;;;;9.35;4.88;;;;;;;;;;5111908;28;20085;-81
2022/12/04 14:13:11;;;;;;;8.93;4.93;;;;;;;;;;5095622;28;20040;-78
2022/12/04 14:15:37;;;;;;;6.35;4.80;;;;;;;;;;5095987;28;20039;-78
2022/12/04 14:18:16;;;;;;;15.30;4.63;;;;;;;;;;5096653;28;20029;-74
2022/12/04 14:20:43;;;;;;;7.30;4.80;;;;;;;;;;5096121;28;20491;-76
2022/12/04 14:23:15;;;;;;;8.63;4.20;;;;;;;;;;5111059;28;20016;-80
2022/12/04 14:25:40;;;;;;;8.27;4.93;;;;;;;;;;5111759;28;20031;-79
2022/12/04 14:28:34;;;;;;;8.50;5.43;;;;;;;;;;5111921;28;20110;-78
2022/12/04 14:30:59;;;;;;;9.70;6.40;;;;;;;;;;5093841;28;20059;-79
2022/12/04 14:33:29;;;;;;;5.60;4.40;;;;;;;;;;5110957;28;20502;-80
2022/12/04 14:35:58;;;;;;;7.57;5.20;;;;;;;;;;5095224;28;20450;-75
2022/12/04 14:38:23;;;;;;;9.65;5.13;;;;;;;;;;5094524;28;20024;-81
2022/12/04 14:40:50;;;;;;;8.13;5.10;;;;;;;;;;5110391;28;20380;-77
2022/12/04 14:43:18;;;;;;;11.93;6.00;;;;;;;;;;5095123;28;20035;-80
2022/12/04 14:45:49;;;;;;;11.53;5.83;;;;;;;;;;5111179;28;20044;-80
2022/12/04 14:48:20;;;;;;;8.17;4.70;;;;;;;;;;5095320;28;20020;-79
2022/12/04 14:50:55;;;;;;;7.47;4.83;;;;;;;;;;5094881;28;20024;-82
2022/12/04 14:53:20;;;;;;;11.02;5.30;;;;;;;;;;5111022;28;20036;-79
2022/12/04 14:55:52;;;;;;;8.37;4.83;;;;;;;;;;5110673;28;20134;-79
2022/12/04 14:58:33;;;;;;;7.67;4.33;;;;;;;;;;5111675;28;20051;-78
2022/12/04 15:01:00;;;;;;;7.70;5.10;;;;;;;;;;5094527;28;20124;-80
2022/12/04 15:03:30;;;;;;;10.90;4.77;;;;;;;;;;5110003;28;20112;-76
2022/12/04 15:06:00;;;;;;;6.43;4.47;;;;;;;;;;5094234;28;20492;-78